sensor_id;sensor_type;location;lat;lon;timestamp;P1;durP1;ratioP1;P2;durP2;ratioP2
19919;SDS011;10122;50.074;19.920;2022-11-14T00:01:37;53.25;;;17.33;;
19919;SDS011;10122;50.074;19.920;2022-11-14T00:04:03;48.53;;;16.15;;
19919;SDS011;10122;50.074;19.920;2022-11-14T00:06:28;53.70;;;16.08;;
19919;SDS011;10122;50.074;19.920;2022-11-14T00:08:54;58.88;;;18.55;;
19919;SDS011;10122;50.074;19.920;2022-11-14T00:11:20;59.20;;;16.77;;
19919;SDS011;10122;50.074;19.920;2022-11-14T00:13:46;60.20;;;18.90;;
19919;SDS011;10122;50.074;19.920;2022-11-14T00:16:11;54.25;;;17.85;;
19919;SDS011;10122;50.074;19.920;2022-11-14T00:18:37;60.83;;;19.13;;
19919;SDS011;10122;50.074;19.920;2022-11-14T00:21:02;53.50;;;18.00;;
19919;SDS011;10122;50.074;19.920;2022-11-14T00:23:28;58.60;;;18.17;;
19919;SDS011;10122;50.074;19.920;2022-11-14T00:25:54;53.03;;;16.77;;
19919;SDS011;10122;50.074;19.920;2022-11-14T00:28:19;54.25;;;16.95;;
19919;SDS011;10122;50.074;19.920;2022-11-14T00:30:46;43.35;;;16.13;;
19919;SDS011;10122;50.074;19.920;2022-11-14T00:33:12;46.70;;;16.73;;
19919;SDS011;10122;50.074;19.920;2022-11-14T00:35:38;53.67;;;18.35;;
19919;SDS011;10122;50.074;19.920;2022-11-14T00:38:03;61.60;;;18.48;;
19919;SDS011;10122;50.074;19.920;2022-11-14T00:40:29;52.63;;;18.42;;
19919;SDS011;10122;50.074;19.920;2022-11-14T00:42:55;56.75;;;19.00;;
19919;SDS011;10122;50.074;19.920;2022-11-14T00:45:20;59.70;;;19.73;;
19919;SDS011;10122;50.074;19.920;2022-11-14T00:47:46;50.30;;;17.63;;
19919;SDS011;10122;50.074;19.920;2022-11-14T00:50:11;66.22;;;21.50;;
19919;SDS011;10122;50.074;19.920;2022-11-14T00:52:37;58.67;;;20.52;;
19919;SDS011;10122;50.074;19.920;2022-11-14T00:55:03;63.25;;;21.00;;
19919;SDS011;10122;50.074;19.920;2022-11-14T00:57:29;70.05;;;21.65;;
19919;SDS011;10122;50.074;19.920;2022-11-14T00:59:55;60.60;;;19.95;;
19919;SDS011;10122;50.074;19.920;2022-11-14T01:02:20;70.63;;;20.35;;
19919;SDS011;10122;50.074;19.920;2022-11-14T01:04:46;52.95;;;18.73;;
19919;SDS011;10122;50.074;19.920;2022-11-14T01:07:12;84.93;;;20.35;;
19919;SDS011;10122;50.074;19.920;2022-11-14T01:09:37;69.35;;;20.75;;
19919;SDS011;10122;50.074;19.920;2022-11-14T01:12:03;53.20;;;17.75;;
19919;SDS011;10122;50.074;19.920;2022-11-14T01:14:29;60.80;;;18.33;;
19919;SDS011;10122;50.074;19.920;2022-11-14T01:16:55;62.15;;;17.98;;
19919;SDS011;10122;50.074;19.920;2022-11-14T01:19:20;68.65;;;20.88;;
19919;SDS011;10122;50.074;19.920;2022-11-14T01:21:46;62.08;;;19.77;;
19919;SDS011;10122;50.074;19.920;2022-11-14T01:24:11;61.47;;;19.55;;
19919;SDS011;10122;50.074;19.920;2022-11-14T01:26:37;50.08;;;17.50;;
19919;SDS011;10122;50.074;19.920;2022-11-14T01:29:03;44.60;;;16.17;;
19919;SDS011;10122;50.074;19.920;2022-11-14T01:31:28;50.95;;;17.17;;
19919;SDS011;10122;50.074;19.920;2022-11-14T01:33:54;55.15;;;19.00;;
19919;SDS011;10122;50.074;19.920;2022-11-14T01:36:20;54.45;;;17.98;;
19919;SDS011;10122;50.074;19.920;2022-11-14T01:38:46;53.83;;;18.48;;
19919;SDS011;10122;50.074;19.920;2022-11-14T01:41:16;54.70;;;16.75;;
19919;SDS011;10122;50.074;19.920;2022-11-14T01:43:42;53.58;;;16.77;;
19919;SDS011;10122;50.074;19.920;2022-11-14T01:48:38;40.45;;;15.88;;
19919;SDS011;10122;50.074;19.920;2022-11-14T01:53:45;46.38;;;16.15;;
19919;SDS011;10122;50.074;19.920;2022-11-14T01:56:14;48.55;;;16.88;;
19919;SDS011;10122;50.074;19.920;2022-11-14T01:58:43;33.92;;;14.02;;
19919;SDS011;10122;50.074;19.920;2022-11-14T02:01:12;39.55;;;14.13;;
19919;SDS011;10122;50.074;19.920;2022-11-14T02:03:39;36.08;;;14.10;;
19919;SDS011;10122;50.074;19.920;2022-11-14T02:06:08;35.63;;;13.68;;
19919;SDS011;10122;50.074;19.920;2022-11-14T02:08:36;36.72;;;14.50;;
19919;SDS011;10122;50.074;19.920;2022-11-14T02:11:03;33.28;;;13.48;;
19919;SDS011;10122;50.074;19.920;2022-11-14T02:13:29;34.67;;;13.40;;
19919;SDS011;10122;50.074;19.920;2022-11-14T02:15:55;34.47;;;12.70;;
19919;SDS011;10122;50.074;19.920;2022-11-14T02:18:21;34.08;;;13.68;;
19919;SDS011;10122;50.074;19.920;2022-11-14T02:20:46;34.72;;;13.57;;
19919;SDS011;10122;50.074;19.920;2022-11-14T02:23:12;37.75;;;14.07;;
19919;SDS011;10122;50.074;19.920;2022-11-14T02:25:38;35.33;;;13.57;;
19919;SDS011;10122;50.074;19.920;2022-11-14T02:28:06;38.83;;;13.55;;
19919;SDS011;10122;50.074;19.920;2022-11-14T02:30:33;31.65;;;13.40;;
19919;SDS011;10122;50.074;19.920;2022-11-14T02:32:59;34.17;;;13.65;;
19919;SDS011;10122;50.074;19.920;2022-11-14T02:35:25;34.90;;;12.98;;
19919;SDS011;10122;50.074;19.920;2022-11-14T02:37:51;34.80;;;13.48;;
19919;SDS011;10122;50.074;19.920;2022-11-14T02:40:16;32.75;;;13.18;;
19919;SDS011;10122;50.074;19.920;2022-11-14T02:42:42;36.63;;;14.55;;
19919;SDS011;10122;50.074;19.920;2022-11-14T02:45:08;38.53;;;14.07;;
19919;SDS011;10122;50.074;19.920;2022-11-14T02:47:35;38.65;;;14.00;;
19919;SDS011;10122;50.074;19.920;2022-11-14T02:50:01;34.92;;;13.98;;
19919;SDS011;10122;50.074;19.920;2022-11-14T02:52:26;35.50;;;13.93;;
19919;SDS011;10122;50.074;19.920;2022-11-14T02:54:52;37.03;;;14.23;;
19919;SDS011;10122;50.074;19.920;2022-11-14T02:57:17;36.15;;;13.07;;
19919;SDS011;10122;50.074;19.920;2022-11-14T02:59:43;29.23;;;12.43;;
19919;SDS011;10122;50.074;19.920;2022-11-14T03:02:09;29.08;;;11.32;;
19919;SDS011;10122;50.074;19.920;2022-11-14T03:04:34;28.63;;;12.43;;
19919;SDS011;10122;50.074;19.920;2022-11-14T03:07:00;31.17;;;12.90;;
19919;SDS011;10122;50.074;19.920;2022-11-14T03:09:25;35.67;;;13.63;;
19919;SDS011;10122;50.074;19.920;2022-11-14T03:11:51;37.88;;;13.25;;
19919;SDS011;10122;50.074;19.920;2022-11-14T03:14:17;33.47;;;13.30;;
19919;SDS011;10122;50.074;19.920;2022-11-14T03:16:42;36.50;;;13.10;;
19919;SDS011;10122;50.074;19.920;2022-11-14T03:19:08;36.78;;;13.77;;
19919;SDS011;10122;50.074;19.920;2022-11-14T03:21:33;32.17;;;12.88;;
19919;SDS011;10122;50.074;19.920;2022-11-14T03:23:59;35.97;;;13.38;;
19919;SDS011;10122;50.074;19.920;2022-11-14T03:26:25;33.72;;;13.35;;
19919;SDS011;10122;50.074;19.920;2022-11-14T03:28:50;38.90;;;13.65;;
19919;SDS011;10122;50.074;19.920;2022-11-14T03:31:16;31.95;;;11.95;;
19919;SDS011;10122;50.074;19.920;2022-11-14T03:33:42;33.20;;;13.13;;
19919;SDS011;10122;50.074;19.920;2022-11-14T03:36:07;36.20;;;13.88;;
19919;SDS011;10122;50.074;19.920;2022-11-14T03:38:33;38.38;;;14.73;;
19919;SDS011;10122;50.074;19.920;2022-11-14T03:40:59;36.70;;;14.80;;
19919;SDS011;10122;50.074;19.920;2022-11-14T03:43:28;40.92;;;15.35;;
19919;SDS011;10122;50.074;19.920;2022-11-14T03:45:59;34.95;;;13.98;;
19919;SDS011;10122;50.074;19.920;2022-11-14T03:48:27;31.10;;;12.65;;
19919;SDS011;10122;50.074;19.920;2022-11-14T03:50:54;36.85;;;13.73;;
19919;SDS011;10122;50.074;19.920;2022-11-14T03:53:20;33.65;;;12.80;;
19919;SDS011;10122;50.074;19.920;2022-11-14T03:55:46;33.42;;;13.23;;
19919;SDS011;10122;50.074;19.920;2022-11-14T03:58:11;21.58;;;7.63;;
19919;SDS011;10122;50.074;19.920;2022-11-14T04:00:37;25.83;;;10.48;;
19919;SDS011;10122;50.074;19.920;2022-11-14T04:03:03;22.40;;;8.85;;
19919;SDS011;10122;50.074;19.920;2022-11-14T04:05:28;26.23;;;11.25;;
19919;SDS011;10122;50.074;19.920;2022-11-14T04:07:54;21.80;;;9.55;;
19919;SDS011;10122;50.074;19.920;2022-11-14T04:10:20;20.77;;;9.77;;
19919;SDS011;10122;50.074;19.920;2022-11-14T04:12:49;22.08;;;10.02;;
19919;SDS011;10122;50.074;19.920;2022-11-14T04:15:16;23.10;;;10.20;;
19919;SDS011;10122;50.074;19.920;2022-11-14T04:17:43;23.48;;;10.48;;
19919;SDS011;10122;50.074;19.920;2022-11-14T04:20:09;21.17;;;10.38;;
19919;SDS011;10122;50.074;19.920;2022-11-14T04:22:36;18.10;;;8.52;;
19919;SDS011;10122;50.074;19.920;2022-11-14T04:25:02;23.35;;;9.90;;
19919;SDS011;10122;50.074;19.920;2022-11-14T04:27:27;21.73;;;9.85;;
19919;SDS011;10122;50.074;19.920;2022-11-14T04:29:53;20.50;;;9.65;;
19919;SDS011;10122;50.074;19.920;2022-11-14T04:32:19;20.98;;;10.15;;
19919;SDS011;10122;50.074;19.920;2022-11-14T04:34:44;23.23;;;9.35;;
19919;SDS011;10122;50.074;19.920;2022-11-14T04:37:10;22.65;;;9.38;;
19919;SDS011;10122;50.074;19.920;2022-11-14T04:39:36;22.55;;;9.15;;
19919;SDS011;10122;50.074;19.920;2022-11-14T04:42:01;19.83;;;8.73;;
19919;SDS011;10122;50.074;19.920;2022-11-14T04:44:27;17.05;;;8.75;;
19919;SDS011;10122;50.074;19.920;2022-11-14T04:46:53;19.10;;;8.90;;
19919;SDS011;10122;50.074;19.920;2022-11-14T04:49:18;22.25;;;9.32;;
19919;SDS011;10122;50.074;19.920;2022-11-14T04:51:44;21.58;;;9.68;;
19919;SDS011;10122;50.074;19.920;2022-11-14T04:54:10;11.52;;;4.90;;
19919;SDS011;10122;50.074;19.920;2022-11-14T04:56:35;18.92;;;8.40;;
19919;SDS011;10122;50.074;19.920;2022-11-14T04:59:01;14.60;;;7.03;;
19919;SDS011;10122;50.074;19.920;2022-11-14T05:01:27;19.95;;;8.45;;
19919;SDS011;10122;50.074;19.920;2022-11-14T05:03:52;22.15;;;8.95;;
19919;SDS011;10122;50.074;19.920;2022-11-14T05:06:18;18.55;;;8.40;;
19919;SDS011;10122;50.074;19.920;2022-11-14T05:08:43;21.25;;;9.38;;
19919;SDS011;10122;50.074;19.920;2022-11-14T05:11:16;21.02;;;8.55;;
19919;SDS011;10122;50.074;19.920;2022-11-14T05:13:44;22.08;;;8.95;;
19919;SDS011;10122;50.074;19.920;2022-11-14T05:16:10;20.30;;;8.90;;
19919;SDS011;10122;50.074;19.920;2022-11-14T05:18:36;23.48;;;9.48;;
19919;SDS011;10122;50.074;19.920;2022-11-14T05:21:02;21.17;;;8.60;;
19919;SDS011;10122;50.074;19.920;2022-11-14T05:23:28;21.73;;;8.95;;
19919;SDS011;10122;50.074;19.920;2022-11-14T05:26:14;20.52;;;9.70;;
19919;SDS011;10122;50.074;19.920;2022-11-14T05:28:42;25.55;;;9.75;;
19919;SDS011;10122;50.074;19.920;2022-11-14T05:31:12;24.40;;;10.30;;
19919;SDS011;10122;50.074;19.920;2022-11-14T05:33:44;20.08;;;8.90;;
19919;SDS011;10122;50.074;19.920;2022-11-14T05:36:14;22.45;;;9.63;;
19919;SDS011;10122;50.074;19.920;2022-11-14T05:38:40;21.52;;;9.02;;
19919;SDS011;10122;50.074;19.920;2022-11-14T05:43:39;24.20;;;8.18;;
19919;SDS011;10122;50.074;19.920;2022-11-14T05:46:07;24.20;;;9.30;;
19919;SDS011;10122;50.074;19.920;2022-11-14T05:48:34;21.92;;;9.18;;
19919;SDS011;10122;50.074;19.920;2022-11-14T05:51:00;22.85;;;8.98;;
19919;SDS011;10122;50.074;19.920;2022-11-14T05:53:28;22.75;;;9.57;;
19919;SDS011;10122;50.074;19.920;2022-11-14T05:55:58;27.20;;;10.80;;
19919;SDS011;10122;50.074;19.920;2022-11-14T05:58:25;24.80;;;10.15;;
19919;SDS011;10122;50.074;19.920;2022-11-14T06:00:51;22.65;;;9.95;;
19919;SDS011;10122;50.074;19.920;2022-11-14T06:03:16;26.88;;;10.27;;
19919;SDS011;10122;50.074;19.920;2022-11-14T06:05:42;20.10;;;8.75;;
19919;SDS011;10122;50.074;19.920;2022-11-14T06:08:07;27.08;;;10.35;;
19919;SDS011;10122;50.074;19.920;2022-11-14T06:10:34;23.73;;;10.00;;
19919;SDS011;10122;50.074;19.920;2022-11-14T06:13:00;22.33;;;9.77;;
19919;SDS011;10122;50.074;19.920;2022-11-14T06:15:26;25.90;;;10.30;;
19919;SDS011;10122;50.074;19.920;2022-11-14T06:17:52;19.50;;;8.73;;
19919;SDS011;10122;50.074;19.920;2022-11-14T06:20:18;19.17;;;7.97;;
19919;SDS011;10122;50.074;19.920;2022-11-14T06:22:44;23.85;;;10.65;;
19919;SDS011;10122;50.074;19.920;2022-11-14T06:25:10;20.88;;;10.18;;
19919;SDS011;10122;50.074;19.920;2022-11-14T06:27:36;25.73;;;10.68;;
19919;SDS011;10122;50.074;19.920;2022-11-14T06:30:02;25.27;;;11.23;;
19919;SDS011;10122;50.074;19.920;2022-11-14T06:32:28;26.10;;;11.10;;
19919;SDS011;10122;50.074;19.920;2022-11-14T06:34:54;24.73;;;10.15;;
19919;SDS011;10122;50.074;19.920;2022-11-14T06:37:19;24.05;;;10.00;;
19919;SDS011;10122;50.074;19.920;2022-11-14T06:39:45;16.80;;;8.00;;
19919;SDS011;10122;50.074;19.920;2022-11-14T06:42:11;23.55;;;9.48;;
19919;SDS011;10122;50.074;19.920;2022-11-14T06:44:36;22.63;;;10.55;;
19919;SDS011;10122;50.074;19.920;2022-11-14T06:47:02;23.17;;;9.77;;
19919;SDS011;10122;50.074;19.920;2022-11-14T06:49:28;24.55;;;9.70;;
19919;SDS011;10122;50.074;19.920;2022-11-14T06:51:53;24.73;;;10.57;;
19919;SDS011;10122;50.074;19.920;2022-11-14T06:54:19;21.67;;;10.32;;
19919;SDS011;10122;50.074;19.920;2022-11-14T06:56:45;22.42;;;10.00;;
19919;SDS011;10122;50.074;19.920;2022-11-14T06:59:10;25.75;;;11.48;;
19919;SDS011;10122;50.074;19.920;2022-11-14T07:01:36;28.50;;;11.98;;
19919;SDS011;10122;50.074;19.920;2022-11-14T07:04:02;27.65;;;11.32;;
19919;SDS011;10122;50.074;19.920;2022-11-14T07:06:28;30.05;;;13.05;;
19919;SDS011;10122;50.074;19.920;2022-11-14T07:08:55;32.80;;;12.75;;
19919;SDS011;10122;50.074;19.920;2022-11-14T07:11:22;28.33;;;10.48;;
19919;SDS011;10122;50.074;19.920;2022-11-14T07:14:00;27.13;;;10.73;;
19919;SDS011;10122;50.074;19.920;2022-11-14T07:16:35;23.90;;;9.57;;
19919;SDS011;10122;50.074;19.920;2022-11-14T07:19:02;29.15;;;11.98;;
19919;SDS011;10122;50.074;19.920;2022-11-14T07:21:33;29.50;;;12.10;;
19919;SDS011;10122;50.074;19.920;2022-11-14T07:23:59;25.73;;;10.60;;
19919;SDS011;10122;50.074;19.920;2022-11-14T07:26:25;24.92;;;11.45;;
19919;SDS011;10122;50.074;19.920;2022-11-14T07:28:51;31.17;;;13.35;;
19919;SDS011;10122;50.074;19.920;2022-11-14T07:31:17;30.75;;;14.18;;
19919;SDS011;10122;50.074;19.920;2022-11-14T07:33:43;34.22;;;14.13;;
19919;SDS011;10122;50.074;19.920;2022-11-14T07:36:10;32.67;;;14.50;;
19919;SDS011;10122;50.074;19.920;2022-11-14T07:38:38;29.27;;;12.68;;
19919;SDS011;10122;50.074;19.920;2022-11-14T07:41:07;28.80;;;11.45;;
19919;SDS011;10122;50.074;19.920;2022-11-14T07:43:35;24.08;;;10.02;;
19919;SDS011;10122;50.074;19.920;2022-11-14T07:46:21;19.90;;;10.07;;
19919;SDS011;10122;50.074;19.920;2022-11-14T07:48:46;21.83;;;10.55;;
19919;SDS011;10122;50.074;19.920;2022-11-14T07:51:13;22.88;;;8.93;;
19919;SDS011;10122;50.074;19.920;2022-11-14T07:53:41;19.95;;;9.38;;
19919;SDS011;10122;50.074;19.920;2022-11-14T07:56:07;25.98;;;10.77;;
19919;SDS011;10122;50.074;19.920;2022-11-14T07:58:38;22.52;;;9.50;;
19919;SDS011;10122;50.074;19.920;2022-11-14T08:01:05;20.30;;;9.02;;
19919;SDS011;10122;50.074;19.920;2022-11-14T08:03:32;21.02;;;9.57;;
19919;SDS011;10122;50.074;19.920;2022-11-14T08:06:02;25.05;;;11.35;;
19919;SDS011;10122;50.074;19.920;2022-11-14T08:08:29;22.90;;;10.70;;
19919;SDS011;10122;50.074;19.920;2022-11-14T08:10:55;24.90;;;10.15;;
19919;SDS011;10122;50.074;19.920;2022-11-14T08:13:22;25.42;;;11.73;;
19919;SDS011;10122;50.074;19.920;2022-11-14T08:15:48;25.13;;;11.38;;
19919;SDS011;10122;50.074;19.920;2022-11-14T08:18:13;21.10;;;7.95;;
19919;SDS011;10122;50.074;19.920;2022-11-14T08:20:39;20.33;;;10.02;;
19919;SDS011;10122;50.074;19.920;2022-11-14T08:23:05;23.45;;;10.75;;
19919;SDS011;10122;50.074;19.920;2022-11-14T08:25:31;20.33;;;9.85;;
19919;SDS011;10122;50.074;19.920;2022-11-14T08:27:57;22.90;;;9.10;;
19919;SDS011;10122;50.074;19.920;2022-11-14T08:30:23;21.17;;;9.18;;
19919;SDS011;10122;50.074;19.920;2022-11-14T08:32:49;24.17;;;10.50;;
19919;SDS011;10122;50.074;19.920;2022-11-14T08:35:15;24.80;;;11.45;;
19919;SDS011;10122;50.074;19.920;2022-11-14T08:37:40;23.67;;;10.98;;
19919;SDS011;10122;50.074;19.920;2022-11-14T08:40:06;25.13;;;11.85;;
19919;SDS011;10122;50.074;19.920;2022-11-14T08:42:33;24.15;;;10.23;;
19919;SDS011;10122;50.074;19.920;2022-11-14T08:44:58;23.73;;;10.45;;
19919;SDS011;10122;50.074;19.920;2022-11-14T08:47:24;25.27;;;12.23;;
19919;SDS011;10122;50.074;19.920;2022-11-14T08:49:49;24.02;;;10.63;;
19919;SDS011;10122;50.074;19.920;2022-11-14T08:52:15;24.77;;;12.15;;
19919;SDS011;10122;50.074;19.920;2022-11-14T08:54:41;28.52;;;13.02;;
19919;SDS011;10122;50.074;19.920;2022-11-14T08:57:06;31.17;;;14.98;;
19919;SDS011;10122;50.074;19.920;2022-11-14T08:59:32;32.83;;;13.63;;
19919;SDS011;10122;50.074;19.920;2022-11-14T09:01:58;26.83;;;12.55;;
19919;SDS011;10122;50.074;19.920;2022-11-14T09:04:24;24.15;;;11.05;;
19919;SDS011;10122;50.074;19.920;2022-11-14T09:06:49;22.52;;;11.25;;
19919;SDS011;10122;50.074;19.920;2022-11-14T09:09:16;25.73;;;12.25;;
19919;SDS011;10122;50.074;19.920;2022-11-14T09:11:41;27.23;;;12.23;;
19919;SDS011;10122;50.074;19.920;2022-11-14T09:14:07;26.15;;;12.32;;
19919;SDS011;10122;50.074;19.920;2022-11-14T09:16:33;25.70;;;11.60;;
19919;SDS011;10122;50.074;19.920;2022-11-14T09:18:59;30.85;;;13.25;;
19919;SDS011;10122;50.074;19.920;2022-11-14T09:21:25;27.35;;;12.30;;
19919;SDS011;10122;50.074;19.920;2022-11-14T09:23:50;26.17;;;12.30;;
19919;SDS011;10122;50.074;19.920;2022-11-14T09:26:16;26.27;;;12.85;;
19919;SDS011;10122;50.074;19.920;2022-11-14T09:28:44;24.08;;;12.13;;
19919;SDS011;10122;50.074;19.920;2022-11-14T09:31:10;23.85;;;12.52;;
19919;SDS011;10122;50.074;19.920;2022-11-14T09:33:37;28.40;;;13.32;;
19919;SDS011;10122;50.074;19.920;2022-11-14T09:36:04;25.90;;;12.27;;
19919;SDS011;10122;50.074;19.920;2022-11-14T09:38:32;29.92;;;13.48;;
19919;SDS011;10122;50.074;19.920;2022-11-14T09:41:04;29.45;;;13.32;;
19919;SDS011;10122;50.074;19.920;2022-11-14T09:46:21;31.50;;;13.75;;
19919;SDS011;10122;50.074;19.920;2022-11-14T09:48:54;33.30;;;15.13;;
19919;SDS011;10122;50.074;19.920;2022-11-14T09:51:21;28.63;;;13.30;;
19919;SDS011;10122;50.074;19.920;2022-11-14T09:54:05;35.22;;;14.07;;
19919;SDS011;10122;50.074;19.920;2022-11-14T09:56:42;35.65;;;14.55;;
19919;SDS011;10122;50.074;19.920;2022-11-14T09:59:09;37.28;;;15.98;;
19919;SDS011;10122;50.074;19.920;2022-11-14T10:01:40;35.47;;;14.23;;
19919;SDS011;10122;50.074;19.920;2022-11-14T10:04:19;42.15;;;17.08;;
19919;SDS011;10122;50.074;19.920;2022-11-14T10:07:09;44.15;;;18.15;;
19919;SDS011;10122;50.074;19.920;2022-11-14T10:12:27;48.33;;;18.80;;
19919;SDS011;10122;50.074;19.920;2022-11-14T10:15:22;36.13;;;16.10;;
19919;SDS011;10122;50.074;19.920;2022-11-14T10:34:41;37.28;;;17.13;;
19919;SDS011;10122;50.074;19.920;2022-11-14T10:37:18;40.85;;;18.67;;
19919;SDS011;10122;50.074;19.920;2022-11-14T10:39:50;43.80;;;19.08;;
19919;SDS011;10122;50.074;19.920;2022-11-14T10:42:33;43.33;;;19.45;;
19919;SDS011;10122;50.074;19.920;2022-11-14T10:47:51;41.67;;;16.45;;
19919;SDS011;10122;50.074;19.920;2022-11-14T10:50:26;35.00;;;15.25;;
19919;SDS011;10122;50.074;19.920;2022-11-14T10:53:00;35.65;;;17.23;;
19919;SDS011;10122;50.074;19.920;2022-11-14T10:55:29;37.13;;;16.90;;
19919;SDS011;10122;50.074;19.920;2022-11-14T10:57:55;38.63;;;17.65;;
19919;SDS011;10122;50.074;19.920;2022-11-14T11:00:22;30.90;;;14.68;;
19919;SDS011;10122;50.074;19.920;2022-11-14T11:02:49;31.75;;;15.52;;
19919;SDS011;10122;50.074;19.920;2022-11-14T11:05:16;31.38;;;15.23;;
19919;SDS011;10122;50.074;19.920;2022-11-14T11:07:46;30.75;;;15.70;;
19919;SDS011;10122;50.074;19.920;2022-11-14T11:10:31;32.50;;;15.88;;
19919;SDS011;10122;50.074;19.920;2022-11-14T11:13:31;27.90;;;11.77;;
19919;SDS011;10122;50.074;19.920;2022-11-14T11:15:59;35.45;;;16.23;;
19919;SDS011;10122;50.074;19.920;2022-11-14T11:18:31;33.90;;;16.75;;
19919;SDS011;10122;50.074;19.920;2022-11-14T11:23:32;28.35;;;13.77;;
19919;SDS011;10122;50.074;19.920;2022-11-14T11:26:03;31.17;;;14.27;;
19919;SDS011;10122;50.074;19.920;2022-11-14T11:28:35;26.55;;;12.55;;
19919;SDS011;10122;50.074;19.920;2022-11-14T11:33:29;34.47;;;16.60;;
19919;SDS011;10122;50.074;19.920;2022-11-14T11:36:11;31.52;;;13.43;;
19919;SDS011;10122;50.074;19.920;2022-11-14T11:38:40;32.50;;;14.60;;
19919;SDS011;10122;50.074;19.920;2022-11-14T11:41:18;35.17;;;16.77;;
19919;SDS011;10122;50.074;19.920;2022-11-14T11:43:49;32.67;;;14.88;;
19919;SDS011;10122;50.074;19.920;2022-11-14T11:46:27;32.42;;;14.40;;
19919;SDS011;10122;50.074;19.920;2022-11-14T11:49:09;30.08;;;14.35;;
19919;SDS011;10122;50.074;19.920;2022-11-14T11:51:54;31.27;;;13.32;;
19919;SDS011;10122;50.074;19.920;2022-11-14T11:54:21;27.38;;;13.27;;
19919;SDS011;10122;50.074;19.920;2022-11-14T11:56:54;27.55;;;13.23;;
19919;SDS011;10122;50.074;19.920;2022-11-14T11:59:40;29.13;;;13.18;;
19919;SDS011;10122;50.074;19.920;2022-11-14T12:02:20;32.28;;;14.30;;
19919;SDS011;10122;50.074;19.920;2022-11-14T12:04:48;30.50;;;14.77;;
19919;SDS011;10122;50.074;19.920;2022-11-14T12:09:46;32.05;;;13.73;;
19919;SDS011;10122;50.074;19.920;2022-11-14T12:31:00;40.20;;;17.02;;
19919;SDS011;10122;50.074;19.920;2022-11-14T12:33:33;38.67;;;16.73;;
19919;SDS011;10122;50.074;19.920;2022-11-14T12:36:03;35.38;;;14.60;;
19919;SDS011;10122;50.074;19.920;2022-11-14T12:38:39;43.80;;;17.92;;
19919;SDS011;10122;50.074;19.920;2022-11-14T12:41:08;39.60;;;17.60;;
19919;SDS011;10122;50.074;19.920;2022-11-14T12:43:35;47.85;;;20.25;;
19919;SDS011;10122;50.074;19.920;2022-11-14T12:46:08;48.20;;;20.73;;
19919;SDS011;10122;50.074;19.920;2022-11-14T12:48:36;50.72;;;21.65;;
19919;SDS011;10122;50.074;19.920;2022-11-14T12:51:05;44.88;;;20.80;;
19919;SDS011;10122;50.074;19.920;2022-11-14T12:53:49;47.13;;;20.90;;
19919;SDS011;10122;50.074;19.920;2022-11-14T13:04:30;42.70;;;18.52;;
19919;SDS011;10122;50.074;19.920;2022-11-14T13:07:07;42.28;;;18.80;;
19919;SDS011;10122;50.074;19.920;2022-11-14T13:12:41;44.00;;;18.40;;
19919;SDS011;10122;50.074;19.920;2022-11-14T13:15:49;46.42;;;18.67;;
19919;SDS011;10122;50.074;19.920;2022-11-14T13:19:01;47.75;;;20.38;;
19919;SDS011;10122;50.074;19.920;2022-11-14T13:22:31;38.38;;;16.23;;
19919;SDS011;10122;50.074;19.920;2022-11-14T13:27:28;49.00;;;21.45;;
19919;SDS011;10122;50.074;19.920;2022-11-14T13:29:57;47.05;;;19.05;;
19919;SDS011;10122;50.074;19.920;2022-11-14T13:38:01;47.60;;;20.30;;
19919;SDS011;10122;50.074;19.920;2022-11-14T13:51:27;36.80;;;17.15;;
19919;SDS011;10122;50.074;19.920;2022-11-14T13:53:54;35.95;;;18.00;;
19919;SDS011;10122;50.074;19.920;2022-11-14T13:56:38;34.53;;;16.88;;
19919;SDS011;10122;50.074;19.920;2022-11-14T14:02:49;33.40;;;15.50;;
19919;SDS011;10122;50.074;19.920;2022-11-14T14:25:08;44.38;;;19.05;;
19919;SDS011;10122;50.074;19.920;2022-11-14T14:30:24;39.83;;;17.63;;
19919;SDS011;10122;50.074;19.920;2022-11-14T14:33:10;42.20;;;19.65;;
19919;SDS011;10122;50.074;19.920;2022-11-14T14:35:37;39.10;;;17.10;;
19919;SDS011;10122;50.074;19.920;2022-11-14T14:38:10;43.75;;;17.00;;
19919;SDS011;10122;50.074;19.920;2022-11-14T14:40:37;38.47;;;17.02;;
19919;SDS011;10122;50.074;19.920;2022-11-14T14:43:04;45.80;;;17.48;;
19919;SDS011;10122;50.074;19.920;2022-11-14T14:45:35;37.33;;;16.88;;
19919;SDS011;10122;50.074;19.920;2022-11-14T14:48:14;44.35;;;19.63;;
19919;SDS011;10122;50.074;19.920;2022-11-14T14:50:49;46.47;;;20.45;;
19919;SDS011;10122;50.074;19.920;2022-11-14T14:53:18;47.03;;;19.83;;
19919;SDS011;10122;50.074;19.920;2022-11-14T14:55:57;43.67;;;19.42;;
19919;SDS011;10122;50.074;19.920;2022-11-14T14:58:26;44.53;;;18.55;;
19919;SDS011;10122;50.074;19.920;2022-11-14T15:03:19;51.15;;;21.88;;
19919;SDS011;10122;50.074;19.920;2022-11-14T15:05:46;43.00;;;17.75;;
19919;SDS011;10122;50.074;19.920;2022-11-14T15:08:13;50.45;;;21.23;;
19919;SDS011;10122;50.074;19.920;2022-11-14T15:10:40;43.90;;;18.52;;
19919;SDS011;10122;50.074;19.920;2022-11-14T15:13:07;47.85;;;19.30;;
19919;SDS011;10122;50.074;19.920;2022-11-14T15:15:39;37.60;;;14.73;;
19919;SDS011;10122;50.074;19.920;2022-11-14T15:18:06;42.30;;;18.88;;
19919;SDS011;10122;50.074;19.920;2022-11-14T15:20:38;38.95;;;17.90;;
19919;SDS011;10122;50.074;19.920;2022-11-14T15:25:35;39.88;;;16.92;;
19919;SDS011;10122;50.074;19.920;2022-11-14T15:28:01;42.90;;;19.02;;
19919;SDS011;10122;50.074;19.920;2022-11-14T15:30:33;52.35;;;20.70;;
19919;SDS011;10122;50.074;19.920;2022-11-14T15:33:00;34.78;;;14.68;;
19919;SDS011;10122;50.074;19.920;2022-11-14T15:35:28;40.63;;;17.67;;
19919;SDS011;10122;50.074;19.920;2022-11-14T15:40:28;42.63;;;17.55;;
19919;SDS011;10122;50.074;19.920;2022-11-14T15:42:54;42.75;;;18.15;;
19919;SDS011;10122;50.074;19.920;2022-11-14T15:45:21;35.28;;;16.30;;
19919;SDS011;10122;50.074;19.920;2022-11-14T15:48:00;42.33;;;17.58;;
19919;SDS011;10122;50.074;19.920;2022-11-14T15:50:32;46.85;;;20.25;;
19919;SDS011;10122;50.074;19.920;2022-11-14T15:53:05;44.97;;;20.00;;
19919;SDS011;10122;50.074;19.920;2022-11-14T15:55:41;43.70;;;18.65;;
19919;SDS011;10122;50.074;19.920;2022-11-14T15:58:10;38.17;;;16.80;;
19919;SDS011;10122;50.074;19.920;2022-11-14T16:00:38;38.92;;;17.63;;
19919;SDS011;10122;50.074;19.920;2022-11-14T16:03:13;45.05;;;19.60;;
19919;SDS011;10122;50.074;19.920;2022-11-14T16:05:44;51.80;;;21.23;;
19919;SDS011;10122;50.074;19.920;2022-11-14T16:08:12;45.42;;;20.15;;
19919;SDS011;10122;50.074;19.920;2022-11-14T16:10:38;43.35;;;19.58;;
19919;SDS011;10122;50.074;19.920;2022-11-14T16:13:04;45.58;;;21.10;;
19919;SDS011;10122;50.074;19.920;2022-11-14T16:15:30;47.17;;;21.23;;
19919;SDS011;10122;50.074;19.920;2022-11-14T16:17:56;51.17;;;22.10;;
19919;SDS011;10122;50.074;19.920;2022-11-14T16:20:22;41.35;;;17.05;;
19919;SDS011;10122;50.074;19.920;2022-11-14T16:22:50;43.47;;;19.38;;